sensor_id;sensor_type;location;lat;lon;timestamp;pressure;altitude;pressure_sealevel;temperature;humidity
74680;BME280;63211;48.548;2.704;2022-09-13T00:01:42;100102.28;;;21.81;62.74
74680;BME280;63211;48.548;2.704;2022-09-13T00:04:08;100098.97;;;21.79;62.93
74680;BME280;63211;48.548;2.704;2022-09-13T00:06:35;100102.56;;;21.79;62.80
74680;BME280;63211;48.548;2.704;2022-09-13T00:09:02;100105.28;;;21.79;62.72
74680;BME280;63211;48.548;2.704;2022-09-13T00:11:29;100109.38;;;21.77;62.90
74680;BME280;63211;48.548;2.704;2022-09-13T00:13:57;100115.94;;;21.76;62.83
74680;BME280;63211;48.548;2.704;2022-09-13T00:16:27;100109.34;;;21.72;62.92
74680;BME280;63211;48.548;2.704;2022-09-13T00:18:54;100118.13;;;21.74;62.88
74680;BME280;63211;48.548;2.704;2022-09-13T00:21:22;100113.16;;;21.71;62.65
74680;BME280;63211;48.548;2.704;2022-09-13T00:23:51;100121.16;;;21.77;62.55
74680;BME280;63211;48.548;2.704;2022-09-13T00:26:19;100105.31;;;21.84;62.45
74680;BME280;63211;48.548;2.704;2022-09-13T00:28:48;100104.47;;;21.79;62.57
74680;BME280;63211;48.548;2.704;2022-09-13T00:31:16;100098.38;;;21.72;62.78
74680;BME280;63211;48.548;2.704;2022-09-13T00:33:44;100093.16;;;21.70;62.74
74680;BME280;63211;48.548;2.704;2022-09-13T00:36:11;100092.31;;;21.70;62.94
74680;BME280;63211;48.548;2.704;2022-09-13T00:38:40;100096.72;;;21.71;62.82
74680;BME280;63211;48.548;2.704;2022-09-13T00:41:11;100097.81;;;21.70;62.92
74680;BME280;63211;48.548;2.704;2022-09-13T00:43:47;100095.31;;;21.68;62.68
74680;BME280;63211;48.548;2.704;2022-09-13T00:46:22;100107.94;;;21.69;62.65
74680;BME280;63211;48.548;2.704;2022-09-13T00:48:57;100099.16;;;21.67;62.83
74680;BME280;63211;48.548;2.704;2022-09-13T00:51:25;100098.88;;;21.69;62.58
74680;BME280;63211;48.548;2.704;2022-09-13T00:53:54;100097.53;;;21.71;62.54
74680;BME280;63211;48.548;2.704;2022-09-13T00:56:28;100089.84;;;21.68;62.76
74680;BME280;63211;48.548;2.704;2022-09-13T00:58:58;100082.16;;;21.65;62.80
74680;BME280;63211;48.548;2.704;2022-09-13T01:01:30;100085.44;;;21.67;62.80
74680;BME280;63211;48.548;2.704;2022-09-13T01:04:00;100093.09;;;21.65;62.56
74680;BME280;63211;48.548;2.704;2022-09-13T01:06:30;100097.47;;;21.61;62.87
74680;BME280;63211;48.548;2.704;2022-09-13T01:09:00;100095.28;;;21.63;62.91
74680;BME280;63211;48.548;2.704;2022-09-13T01:11:32;100084.06;;;21.65;62.76
74680;BME280;63211;48.548;2.704;2022-09-13T01:14:04;100073.09;;;21.65;62.72
74680;BME280;63211;48.548;2.704;2022-09-13T01:16:32;100065.41;;;21.61;62.74
74680;BME280;63211;48.548;2.704;2022-09-13T01:19:00;100062.13;;;21.65;62.75
74680;BME280;63211;48.548;2.704;2022-09-13T01:25:15;100080.22;;;21.60;62.58
74680;BME280;63211;48.548;2.704;2022-09-13T01:27:56;100077.22;;;21.67;62.59
74680;BME280;63211;48.548;2.704;2022-09-13T01:30:32;100080.75;;;21.63;62.41
74680;BME280;63211;48.548;2.704;2022-09-13T01:36:20;100076.34;;;21.56;62.72
74680;BME280;63211;48.548;2.704;2022-09-13T01:39:02;100075.25;;;21.57;62.87
74680;BME280;63211;48.548;2.704;2022-09-13T01:41:46;100075.00;;;21.59;62.68
74680;BME280;63211;48.548;2.704;2022-09-13T01:44:26;100074.16;;;21.58;62.71
74680;BME280;63211;48.548;2.704;2022-09-13T01:47:00;100074.16;;;21.58;62.68
74680;BME280;63211;48.548;2.704;2022-09-13T01:49:31;100065.13;;;21.58;62.75
74680;BME280;63211;48.548;2.704;2022-09-13T01:52:06;100057.16;;;21.56;62.86
74680;BME280;63211;48.548;2.704;2022-09-13T01:54:38;100057.47;;;21.60;62.85
74680;BME280;63211;48.548;2.704;2022-09-13T01:57:13;100051.50;;;21.68;62.23
74680;BME280;63211;48.548;2.704;2022-09-13T01:59:46;100045.47;;;21.71;62.38
74680;BME280;63211;48.548;2.704;2022-09-13T02:02:18;100044.66;;;21.71;62.10
74680;BME280;63211;48.548;2.704;2022-09-13T02:04:50;100043.00;;;21.70;62.19
74680;BME280;63211;48.548;2.704;2022-09-13T02:07:21;100040.25;;;21.70;62.02
74680;BME280;63211;48.548;2.704;2022-09-13T02:09:55;100032.03;;;21.70;62.31
74680;BME280;63211;48.548;2.704;2022-09-13T02:12:27;100029.56;;;21.68;61.86
74680;BME280;63211;48.548;2.704;2022-09-13T02:15:02;100028.47;;;21.69;62.08
74680;BME280;63211;48.548;2.704;2022-09-13T02:17:36;100024.09;;;21.68;62.09
74680;BME280;63211;48.548;2.704;2022-09-13T02:20:07;100030.97;;;21.71;61.93
74680;BME280;63211;48.548;2.704;2022-09-13T02:22:39;100033.69;;;21.71;61.80
74680;BME280;63211;48.548;2.704;2022-09-13T02:25:09;100033.69;;;21.71;61.71
74680;BME280;63211;48.548;2.704;2022-09-13T02:27:39;100032.88;;;21.70;61.79
74680;BME280;63211;48.548;2.704;2022-09-13T02:30:10;100031.22;;;21.69;61.65
74680;BME280;63211;48.548;2.704;2022-09-13T02:32:41;100032.88;;;21.70;62.07
74680;BME280;63211;48.548;2.704;2022-09-13T02:35:13;100028.47;;;21.69;61.70
74680;BME280;63211;48.548;2.704;2022-09-13T02:38:03;100025.75;;;21.69;61.63
74680;BME280;63211;48.548;2.704;2022-09-13T02:40:33;100019.69;;;21.67;61.28
74680;BME280;63211;48.548;2.704;2022-09-13T02:43:07;100016.69;;;21.69;61.92
74680;BME280;63211;48.548;2.704;2022-09-13T02:45:41;100006.81;;;21.68;61.77
74680;BME280;63211;48.548;2.704;2022-09-13T02:48:19;100001.34;;;21.68;61.71
74680;BME280;63211;48.548;2.704;2022-09-13T02:50:55;100006.81;;;21.68;61.59
74680;BME280;63211;48.548;2.704;2022-09-13T02:53:30;99999.44;;;21.68;61.57
74680;BME280;63211;48.548;2.704;2022-09-13T02:56:03;100000.53;;;21.67;61.60
74680;BME280;63211;48.548;2.704;2022-09-13T02:58:37;99989.56;;;21.67;61.57
74680;BME280;63211;48.548;2.704;2022-09-13T03:01:07;99989.00;;;21.65;61.54
74680;BME280;63211;48.548;2.704;2022-09-13T03:03:35;100001.88;;;21.65;61.46
74680;BME280;63211;48.548;2.704;2022-09-13T03:06:02;99995.00;;;21.62;61.48
74680;BME280;63211;48.548;2.704;2022-09-13T03:08:29;100013.09;;;21.63;61.59
74680;BME280;63211;48.548;2.704;2022-09-13T03:11:01;100013.91;;;21.64;61.59
74680;BME280;63211;48.548;2.704;2022-09-13T03:13:49;100004.88;;;21.63;61.66
74680;BME280;63211;48.548;2.704;2022-09-13T03:16:31;100012.25;;;21.63;61.59
74680;BME280;63211;48.548;2.704;2022-09-13T03:19:18;100013.09;;;21.63;61.76
74680;BME280;63211;48.548;2.704;2022-09-13T03:22:02;100009.00;;;21.60;61.59
74680;BME280;63211;48.548;2.704;2022-09-13T03:24:40;100005.44;;;21.60;61.53
74680;BME280;63211;48.548;2.704;2022-09-13T03:27:18;100012.00;;;21.59;61.74
74680;BME280;63211;48.548;2.704;2022-09-13T03:29:52;100005.69;;;21.58;61.43
74680;BME280;63211;48.548;2.704;2022-09-13T03:32:27;100010.06;;;21.59;61.25
74680;BME280;63211;48.548;2.704;2022-09-13T03:35:05;100007.34;;;21.59;61.28
74680;BME280;63211;48.548;2.704;2022-09-13T03:37:40;100010.34;;;21.58;61.51
74680;BME280;63211;48.548;2.704;2022-09-13T03:40:13;100000.47;;;21.57;61.94
74680;BME280;63211;48.548;2.704;2022-09-13T03:42:43;99996.91;;;21.56;61.26
74680;BME280;63211;48.548;2.704;2022-09-13T03:45:13;99981.56;;;21.55;61.25
74680;BME280;63211;48.548;2.704;2022-09-13T03:47:42;99974.44;;;21.54;61.42
74680;BME280;63211;48.548;2.704;2022-09-13T03:50:15;99967.31;;;21.53;61.30
74680;BME280;63211;48.548;2.704;2022-09-13T03:52:45;99955.78;;;21.51;61.44
74680;BME280;63211;48.548;2.704;2022-09-13T03:55:13;99959.09;;;21.53;61.49
74680;BME280;63211;48.548;2.704;2022-09-13T03:57:39;99966.22;;;21.54;61.18
74680;BME280;63211;48.548;2.704;2022-09-13T04:00:08;99971.69;;;21.54;61.36
74680;BME280;63211;48.548;2.704;2022-09-13T04:02:35;99979.06;;;21.54;61.32
74680;BME280;63211;48.548;2.704;2022-09-13T04:05:02;99981.81;;;21.54;61.44
74680;BME280;63211;48.548;2.704;2022-09-13T04:07:30;99983.72;;;21.53;61.38
74680;BME280;63211;48.548;2.704;2022-09-13T04:09:56;99982.34;;;21.51;61.03
74680;BME280;63211;48.548;2.704;2022-09-13T04:12:23;99982.34;;;21.51;61.34
74680;BME280;63211;48.548;2.704;2022-09-13T04:14:51;99984.50;;;21.49;61.36
74680;BME280;63211;48.548;2.704;2022-09-13T04:17:18;99987.25;;;21.49;61.42
74680;BME280;63211;48.548;2.704;2022-09-13T04:19:45;99990.81;;;21.49;61.57
74680;BME280;63211;48.548;2.704;2022-09-13T04:22:11;100002.59;;;21.50;61.29
74680;BME280;63211;48.548;2.704;2022-09-13T04:24:39;100002.59;;;21.50;61.41
74680;BME280;63211;48.548;2.704;2022-09-13T04:27:07;99986.16;;;21.50;61.37
74680;BME280;63211;48.548;2.704;2022-09-13T04:29:34;99986.16;;;21.50;61.25
74680;BME280;63211;48.548;2.704;2022-09-13T04:32:01;99984.50;;;21.49;61.38
74680;BME280;63211;48.548;2.704;2022-09-13T04:34:27;99976.31;;;21.49;61.56
74680;BME280;63211;48.548;2.704;2022-09-13T04:36:54;99979.03;;;21.49;61.35
74680;BME280;63211;48.548;2.704;2022-09-13T04:39:21;99973.56;;;21.49;61.25
74680;BME280;63211;48.548;2.704;2022-09-13T04:41:50;99978.78;;;21.50;61.34
74680;BME280;63211;48.548;2.704;2022-09-13T04:44:19;99999.03;;;21.49;61.29
74680;BME280;63211;48.548;2.704;2022-09-13T04:46:49;99987.25;;;21.49;61.40
74680;BME280;63211;48.548;2.704;2022-09-13T04:49:16;99994.38;;;21.50;61.37
74680;BME280;63211;48.548;2.704;2022-09-13T04:51:44;99996.28;;;21.49;61.18
74680;BME280;63211;48.548;2.704;2022-09-13T04:54:11;99997.38;;;21.48;61.30
74680;BME280;63211;48.548;2.704;2022-09-13T04:56:38;100000.13;;;21.48;61.26
74680;BME280;63211;48.548;2.704;2022-09-13T04:59:06;100019.81;;;21.45;62.04
74680;BME280;63211;48.548;2.704;2022-09-13T05:01:35;100014.34;;;21.45;61.68
74680;BME280;63211;48.548;2.704;2022-09-13T05:04:02;100008.59;;;21.47;61.74
74680;BME280;63211;48.548;2.704;2022-09-13T05:06:28;100005.88;;;21.47;61.81
74680;BME280;63211;48.548;2.704;2022-09-13T05:08:55;100005.03;;;21.46;61.83
74680;BME280;63211;48.548;2.704;2022-09-13T05:11:24;100011.03;;;21.43;61.84
74680;BME280;63211;48.548;2.704;2022-09-13T05:13:51;100001.16;;;21.42;62.05
74680;BME280;63211;48.548;2.704;2022-09-13T05:16:21;100007.22;;;21.44;62.09
74680;BME280;63211;48.548;2.704;2022-09-13T05:18:48;100011.84;;;21.44;61.99
74680;BME280;63211;48.548;2.704;2022-09-13T05:21:15;100011.03;;;21.43;62.00
74680;BME280;63211;48.548;2.704;2022-09-13T05:23:43;100014.84;;;21.42;61.82
74680;BME280;63211;48.548;2.704;2022-09-13T05:26:10;100006.09;;;21.40;62.00
74680;BME280;63211;48.548;2.704;2022-09-13T05:28:36;100002.53;;;21.40;62.11
74680;BME280;63211;48.548;2.704;2022-09-13T05:31:04;99996.50;;;21.38;62.11
74680;BME280;63211;48.548;2.704;2022-09-13T05:33:34;99994.84;;;21.37;62.10
74680;BME280;63211;48.548;2.704;2022-09-13T05:36:02;99983.31;;;21.35;62.11
74680;BME280;63211;48.548;2.704;2022-09-13T05:38:29;99976.19;;;21.34;62.49
74680;BME280;63211;48.548;2.704;2022-09-13T05:40:57;99987.78;;;21.46;62.15
74680;BME280;63211;48.548;2.704;2022-09-13T05:43:24;99971.09;;;21.47;62.28
74680;BME280;63211;48.548;2.704;2022-09-13T05:45:59;99977.38;;;21.48;62.67
74680;BME280;63211;48.548;2.704;2022-09-13T05:48:26;99985.34;;;21.49;62.27
74680;BME280;63211;48.548;2.704;2022-09-13T05:50:54;99977.69;;;21.51;62.24
74680;BME280;63211;48.548;2.704;2022-09-13T05:53:20;99979.06;;;21.54;62.23
74680;BME280;63211;48.548;2.704;2022-09-13T05:55:47;99966.47;;;21.53;62.09
74680;BME280;63211;48.548;2.704;2022-09-13T05:58:13;99973.88;;;21.52;62.76
74680;BME280;63211;48.548;2.704;2022-09-13T06:00:40;99974.13;;;21.51;62.71
74680;BME280;63211;48.548;2.704;2022-09-13T06:03:07;99968.38;;;21.52;62.26
74680;BME280;63211;48.548;2.704;2022-09-13T06:05:33;99979.59;;;21.51;62.89
74680;BME280;63211;48.548;2.704;2022-09-13T06:08:01;99976.59;;;21.52;63.06
74680;BME280;63211;48.548;2.704;2022-09-13T06:10:28;99973.88;;;21.52;63.04
74680;BME280;63211;48.548;2.704;2022-09-13T06:12:55;99971.13;;;21.52;63.06
74680;BME280;63211;48.548;2.704;2022-09-13T06:15:21;99975.78;;;21.52;63.25
74680;BME280;63211;48.548;2.704;2022-09-13T06:17:48;99973.88;;;21.52;63.01
74680;BME280;63211;48.548;2.704;2022-09-13T06:20:15;99974.13;;;21.51;62.93
74680;BME280;63211;48.548;2.704;2022-09-13T06:22:41;99962.34;;;21.50;62.86
74680;BME280;63211;48.548;2.704;2022-09-13T06:25:09;99964.25;;;21.50;62.86
74680;BME280;63211;48.548;2.704;2022-09-13T06:27:36;99956.03;;;21.50;62.70
74680;BME280;63211;48.548;2.704;2022-09-13T06:30:03;99930.78;;;21.43;62.81
74680;BME280;63211;48.548;2.704;2022-09-13T06:32:31;99946.72;;;21.51;62.46
74680;BME280;63211;48.548;2.704;2022-09-13T06:34:58;99940.69;;;21.49;62.55
74680;BME280;63211;48.548;2.704;2022-09-13T06:37:24;99940.97;;;21.47;62.59
74680;BME280;63211;48.548;2.704;2022-09-13T06:39:51;99935.22;;;21.49;62.45
74680;BME280;63211;48.548;2.704;2022-09-13T06:42:19;99941.53;;;21.49;62.38
74680;BME280;63211;48.548;2.704;2022-09-13T06:44:46;99936.88;;;21.50;62.43
74680;BME280;63211;48.548;2.704;2022-09-13T06:47:13;99940.13;;;21.47;62.51
74680;BME280;63211;48.548;2.704;2022-09-13T06:49:39;99949.16;;;21.47;62.38
74680;BME280;63211;48.548;2.704;2022-09-13T06:52:06;99947.53;;;21.46;62.40
74680;BME280;63211;48.548;2.704;2022-09-13T06:54:32;99928.63;;;21.45;62.41
74680;BME280;63211;48.548;2.704;2022-09-13T06:56:59;99929.44;;;21.45;62.55
74680;BME280;63211;48.548;2.704;2022-09-13T06:59:28;99924.22;;;21.44;62.57
74680;BME280;63211;48.548;2.704;2022-09-13T07:01:55;99914.09;;;21.44;62.32
74680;BME280;63211;48.548;2.704;2022-09-13T07:04:21;99915.19;;;21.43;62.44
74680;BME280;63211;48.548;2.704;2022-09-13T07:06:48;99908.63;;;21.44;62.36
74680;BME280;63211;48.548;2.704;2022-09-13T07:09:17;99914.91;;;21.45;62.34
74680;BME280;63211;48.548;2.704;2022-09-13T07:11:44;99907.78;;;21.44;62.41
74680;BME280;63211;48.548;2.704;2022-09-13T07:14:13;99904.22;;;21.43;62.17
74680;BME280;63211;48.548;2.704;2022-09-13T07:16:41;99906.41;;;21.41;62.28
74680;BME280;63211;48.548;2.704;2022-09-13T07:19:12;99912.19;;;21.45;62.40
74680;BME280;63211;48.548;2.704;2022-09-13T07:21:39;99915.44;;;21.42;62.17
74680;BME280;63211;48.548;2.704;2022-09-13T07:24:06;99920.41;;;21.45;62.08
74680;BME280;63211;48.548;2.704;2022-09-13T07:26:33;99922.00;;;21.41;61.97
74680;BME280;63211;48.548;2.704;2022-09-13T07:29:01;99924.47;;;21.42;62.05
74680;BME280;63211;48.548;2.704;2022-09-13T07:31:29;99943.41;;;21.44;61.91
74680;BME280;63211;48.548;2.704;2022-09-13T07:33:58;99937.91;;;21.44;62.07
74680;BME280;63211;48.548;2.704;2022-09-13T07:36:26;99931.34;;;21.45;62.16
74680;BME280;63211;48.548;2.704;2022-09-13T07:38:53;99934.91;;;21.45;62.25
74680;BME280;63211;48.548;2.704;2022-09-13T07:41:21;99928.63;;;21.45;62.07
74680;BME280;63211;48.548;2.704;2022-09-13T07:43:49;99926.13;;;21.43;62.01
74680;BME280;63211;48.548;2.704;2022-09-13T07:46:17;99929.13;;;21.42;62.22
74680;BME280;63211;48.548;2.704;2022-09-13T07:48:46;99924.47;;;21.42;62.13
74680;BME280;63211;48.548;2.704;2022-09-13T07:51:15;99915.19;;;21.38;62.38
74680;BME280;63211;48.548;2.704;2022-09-13T07:53:44;99919.00;;;21.42;61.99
74680;BME280;63211;48.548;2.704;2022-09-13T07:56:13;99916.28;;;21.42;62.01
74680;BME280;63211;48.548;2.704;2022-09-13T07:58:44;99922.31;;;21.44;62.08
74680;BME280;63211;48.548;2.704;2022-09-13T08:01:13;99931.34;;;21.45;62.20
74680;BME280;63211;48.548;2.704;2022-09-13T08:03:40;99932.19;;;21.45;62.31
74680;BME280;63211;48.548;2.704;2022-09-13T08:06:08;99945.03;;;21.45;62.07
74680;BME280;63211;48.548;2.704;2022-09-13T08:08:36;99946.97;;;21.44;62.10
74680;BME280;63211;48.548;2.704;2022-09-13T08:11:05;99944.22;;;21.44;62.18
74680;BME280;63211;48.548;2.704;2022-09-13T08:13:31;99952.97;;;21.41;62.22
74680;BME280;63211;48.548;2.704;2022-09-13T08:16:00;99957.34;;;21.42;62.27
74680;BME280;63211;48.548;2.704;2022-09-13T08:18:27;99963.66;;;21.43;62.24
74680;BME280;63211;48.548;2.704;2022-09-13T08:20:55;99967.22;;;21.43;62.27
74680;BME280;63211;48.548;2.704;2022-09-13T08:23:22;99967.22;;;21.43;62.20
74680;BME280;63211;48.548;2.704;2022-09-13T08:25:51;99967.22;;;21.43;62.33
74680;BME280;63211;48.548;2.704;2022-09-13T08:28:19;99967.22;;;21.43;62.18
74680;BME280;63211;48.548;2.704;2022-09-13T08:30:47;99977.09;;;21.44;62.18
74680;BME280;63211;48.548;2.704;2022-09-13T08:33:14;99980.66;;;21.45;62.15
74680;BME280;63211;48.548;2.704;2022-09-13T08:35:48;99975.44;;;21.43;62.18
74680;BME280;63211;48.548;2.704;2022-09-13T08:38:15;99977.09;;;21.44;62.26
74680;BME280;63211;48.548;2.704;2022-09-13T08:40:44;99974.88;;;21.41;62.21
74680;BME280;63211;48.548;2.704;2022-09-13T08:43:20;99985.56;;;21.43;62.08
74680;BME280;63211;48.548;2.704;2022-09-13T08:45:51;99980.91;;;21.43;62.20
74680;BME280;63211;48.548;2.704;2022-09-13T08:48:22;99980.09;;;21.43;62.24
74680;BME280;63211;48.548;2.704;2022-09-13T08:50:57;99975.69;;;21.42;62.32
74680;BME280;63211;48.548;2.704;2022-09-13T08:53:28;99977.59;;;21.41;62.21
74680;BME280;63211;48.548;2.704;2022-09-13T08:56:06;99980.34;;;21.41;62.05
74680;BME280;63211;48.548;2.704;2022-09-13T08:58:58;99981.16;;;21.42;62.11
74680;BME280;63211;48.548;2.704;2022-09-13T09:01:37;99979.81;;;21.39;62.35
74680;BME280;63211;48.548;2.704;2022-09-13T09:04:14;99991.03;;;21.43;62.24
74680;BME280;63211;48.548;2.704;2022-09-13T09:06:52;99990.22;;;21.42;62.22
74680;BME280;63211;48.548;2.704;2022-09-13T09:09:21;99994.03;;;21.41;62.19
74680;BME280;63211;48.548;2.704;2022-09-13T09:11:50;99990.22;;;21.42;62.61
74680;BME280;63211;48.548;2.704;2022-09-13T09:14:26;99986.94;;;21.40;62.63
74680;BME280;63211;48.548;2.704;2022-09-13T09:16:59;99996.56;;;21.48;62.42
74680;BME280;63211;48.548;2.704;2022-09-13T09:19:29;100000.44;;;21.52;62.36
74680;BME280;63211;48.548;2.704;2022-09-13T09:22:01;100005.06;;;21.51;62.32
74680;BME280;63211;48.548;2.704;2022-09-13T09:24:32;100006.13;;;21.45;62.42
74680;BME280;63211;48.548;2.704;2022-09-13T09:27:01;100008.84;;;21.45;62.90
74680;BME280;63211;48.548;2.704;2022-09-13T09:29:36;100002.88;;;21.48;63.15
74680;BME280;63211;48.548;2.704;2022-09-13T09:32:09;100009.44;;;21.47;62.47
74680;BME280;63211;48.548;2.704;2022-09-13T09:34:51;100001.16;;;21.42;62.64
74680;BME280;63211;48.548;2.704;2022-09-13T09:37:23;100000.66;;;21.45;62.52
74680;BME280;63211;48.548;2.704;2022-09-13T09:39:51;100006.13;;;21.45;62.93
74680;BME280;63211;48.548;2.704;2022-09-13T09:42:22;100004.47;;;21.44;63.19
74680;BME280;63211;48.548;2.704;2022-09-13T09:44:53;100002.56;;;21.45;62.63
74680;BME280;63211;48.548;2.704;2022-09-13T09:47:24;100011.34;;;21.47;62.76
74680;BME280;63211;48.548;2.704;2022-09-13T09:49:54;100015.72;;;21.48;62.90
74680;BME280;63211;48.548;2.704;2022-09-13T09:52:40;100017.38;;;21.49;63.30
74680;BME280;63211;48.548;2.704;2022-09-13T09:55:26;100013.88;;;21.53;63.49
74680;BME280;63211;48.548;2.704;2022-09-13T09:57:55;100009.78;;;21.56;63.71
74680;BME280;63211;48.548;2.704;2022-09-13T10:00:25;100006.50;;;21.59;63.63
74680;BME280;63211;48.548;2.704;2022-09-13T10:02:54;100003.22;;;21.62;63.38
74680;BME280;63211;48.548;2.704;2022-09-13T10:05:22;99998.88;;;21.66;63.37
74680;BME280;63211;48.548;2.704;2022-09-13T10:08:01;99997.25;;;21.70;63.43
74680;BME280;63211;48.548;2.704;2022-09-13T10:10:38;99985.78;;;21.73;63.39
74680;BME280;63211;48.548;2.704;2022-09-13T10:13:12;99993.47;;;21.76;63.22
74680;BME280;63211;48.548;2.704;2022-09-13T10:15:53;100004.16;;;21.78;63.42
74680;BME280;63211;48.548;2.704;2022-09-13T10:18:23;100003.63;;;21.81;63.56
74680;BME280;63211;48.548;2.704;2022-09-13T10:21:02;100003.63;;;21.81;63.15
74680;BME280;63211;48.548;2.704;2022-09-13T10:23:30;99997.34;;;21.85;63.33
74680;BME280;63211;48.548;2.704;2022-09-13T10:26:06;99990.50;;;21.88;63.46
74680;BME280;63211;48.548;2.704;2022-09-13T10:28:39;99982.84;;;21.90;63.25
74680;BME280;63211;48.548;2.704;2022-09-13T10:31:10;99979.84;;;21.91;63.23
74680;BME280;63211;48.548;2.704;2022-09-13T10:33:39;99983.13;;;21.93;63.09
74680;BME280;63211;48.548;2.704;2022-09-13T10:36:12;99988.31;;;21.90;63.11
74680;BME280;63211;48.548;2.704;2022-09-13T10:38:41;99995.47;;;21.91;63.12
74680;BME280;63211;48.548;2.704;2022-09-13T10:41:20;99999.31;;;21.95;62.96
74680;BME280;63211;48.548;2.704;2022-09-13T10:43:48;99994.94;;;21.94;62.65
74680;BME280;63211;48.548;2.704;2022-09-13T10:46:24;99994.94;;;21.94;62.95
74680;BME280;63211;48.548;2.704;2022-09-13T10:48:52;99994.94;;;21.94;62.77
74680;BME280;63211;48.548;2.704;2022-09-13T10:51:39;99989.75;;;21.98;62.86
74680;BME280;63211;48.548;2.704;2022-09-13T10:54:08;99993.63;;;22.02;62.61
74680;BME280;63211;48.548;2.704;2022-09-13T10:56:36;99984.59;;;22.01;62.76
74680;BME280;63211;48.548;2.704;2022-09-13T10:59:23;99988.44;;;22.10;62.63
74680;BME280;63211;48.548;2.704;2022-09-13T11:02:25;99976.97;;;22.18;62.64
74680;BME280;63211;48.548;2.704;2022-09-13T11:05:17;99969.28;;;22.15;62.82
74680;BME280;63211;48.548;2.704;2022-09-13T11:10:58;99963.00;;;22.20;62.83
74680;BME280;63211;48.548;2.704;2022-09-13T11:13:34;99958.59;;;22.24;62.98
74680;BME280;63211;48.548;2.704;2022-09-13T11:16:15;99950.13;;;22.31;62.16
74680;BME280;63211;48.548;2.704;2022-09-13T11:21:45;99958.94;;;22.38;62.33
74680;BME280;63211;48.548;2.704;2022-09-13T11:24:28;99955.66;;;22.36;62.72
74680;BME280;63211;48.548;2.704;2022-09-13T11:27:02;99965.00;;;22.40;62.59
74680;BME280;63211;48.548;2.704;2022-09-13T11:29:54;99955.66;;;22.41;62.46
74680;BME280;63211;48.548;2.704;2022-09-13T11:32:35;99955.13;;;22.44;62.03
74680;BME280;63211;48.548;2.704;2022-09-13T11:35:27;99963.63;;;22.47;62.32
74680;BME280;63211;48.548;2.704;2022-09-13T11:38:07;99957.88;;;22.49;62.35
74680;BME280;63211;48.548;2.704;2022-09-13T11:40:43;99964.72;;;22.46;62.53
74680;BME280;63211;48.548;2.704;2022-09-13T11:43:29;99956.22;;;22.48;62.40
74680;BME280;63211;48.548;2.704;2022-09-13T11:46:06;99958.97;;;22.53;62.12
74680;BME280;63211;48.548;2.704;2022-09-13T11:49:10;99961.75;;;22.63;61.95
74680;BME280;63211;48.548;2.704;2022-09-13T11:51:50;99949.66;;;22.69;62.19
74680;BME280;63211;48.548;2.704;2022-09-13T11:54:33;99949.13;;;22.62;61.91
74680;BME280;63211;48.548;2.704;2022-09-13T11:57:04;99949.66;;;22.59;62.16
74680;BME280;63211;48.548;2.704;2022-09-13T11:59:37;99962.56;;;22.63;62.36
74680;BME280;63211;48.548;2.704;2022-09-13T12:02:15;99964.75;;;22.67;62.15
74680;BME280;63211;48.548;2.704;2022-09-13T12:04:49;99962.31;;;22.65;62.69
74680;BME280;63211;48.548;2.704;2022-09-13T12:07:26;99966.41;;;22.62;62.21
74680;BME280;63211;48.548;2.704;2022-09-13T12:09:59;99970.53;;;22.65;62.61
74680;BME280;63211;48.548;2.704;2022-09-13T12:12:31;99960.91;;;22.68;62.73
74680;BME280;63211;48.548;2.704;2022-09-13T12:15:02;99958.72;;;22.70;62.46
74680;BME280;63211;48.548;2.704;2022-09-13T12:17:36;99959.00;;;22.73;62.33
74680;BME280;63211;48.548;2.704;2022-09-13T12:20:10;99967.53;;;22.77;62.60
74680;BME280;63211;48.548;2.704;2022-09-13T12:22:39;99974.16;;;22.81;61.95
74680;BME280;63211;48.548;2.704;2022-09-13T12:25:16;99973.59;;;22.79;61.92
74680;BME280;63211;48.548;2.704;2022-09-13T12:27:48;99964.81;;;22.82;61.54
74680;BME280;63211;48.548;2.704;2022-09-13T12:30:18;99957.69;;;22.86;61.22
74680;BME280;63211;48.548;2.704;2022-09-13T12:32:46;99945.34;;;22.83;62.05
74680;BME280;63211;48.548;2.704;2022-09-13T12:35:20;99929.69;;;22.84;61.60
74680;BME280;63211;48.548;2.704;2022-09-13T12:38:07;99927.50;;;22.86;62.08
74680;BME280;63211;48.548;2.704;2022-09-13T12:40:56;99923.63;;;22.87;61.79
74680;BME280;63211;48.548;2.704;2022-09-13T12:43:56;99912.13;;;22.90;61.89
74680;BME280;63211;48.548;2.704;2022-09-13T12:46:51;99907.72;;;22.89;61.70
74680;BME280;63211;48.548;2.704;2022-09-13T12:49:26;99909.38;;;22.95;61.93
74680;BME280;63211;48.548;2.704;2022-09-13T12:52:11;99897.03;;;23.03;61.09
74680;BME280;63211;48.548;2.704;2022-09-13T12:54:53;99883.84;;;22.94;61.27
74680;BME280;63211;48.548;2.704;2022-09-13T12:57:34;99880.28;;;22.89;61.40
74680;BME280;63211;48.548;2.704;2022-09-13T13:00:12;99889.06;;;22.96;61.07
74680;BME280;63211;48.548;2.704;2022-09-13T13:02:50;99884.41;;;22.96;61.40
74680;BME280;63211;48.548;2.704;2022-09-13T13:05:24;99886.03;;;22.98;61.39
74680;BME280;63211;48.548;2.704;2022-09-13T13:07:53;99886.03;;;23.03;61.27
74680;BME280;63211;48.548;2.704;2022-09-13T13:10:26;99884.66;;;23.00;61.44
74680;BME280;63211;48.548;2.704;2022-09-13T13:13:08;99875.63;;;23.00;61.30
74680;BME280;63211;48.548;2.704;2022-09-13T13:15:58;99875.88;;;22.93;62.08
74680;BME280;63211;48.548;2.704;2022-09-13T13:18:27;99881.91;;;22.95;61.59
74680;BME280;63211;48.548;2.704;2022-09-13T13:24:36;99885.22;;;22.97;61.70
74680;BME280;63211;48.548;2.704;2022-09-13T13:33:12;99870.94;;;23.00;62.00
74680;BME280;63211;48.548;2.704;2022-09-13T13:35:40;99871.78;;;22.95;62.52
74680;BME280;63211;48.548;2.704;2022-09-13T13:38:36;99872.59;;;22.96;62.27
74680;BME280;63211;48.548;2.704;2022-09-13T13:41:06;99881.09;;;23.00;62.15
74680;BME280;63211;48.548;2.704;2022-09-13T13:43:34;99879.19;;;23.00;61.70
74680;BME280;63211;48.548;2.704;2022-09-13T13:46:25;99873.16;;;23.03;61.85